Time;durP1;ratioP1;P1;durP2;ratioP2;P2;SDS_P1;SDS_P2;PMS_P1;PMS_P2;Temp;Humidity;BMP_temperature;BMP_pressure;BME280_temperature;BME280_humidity;BME280_pressure;Samples;Min_cycle;Max_cycle;Signal;HPM_P1;HPM_P2
2022/01/17 00:01:47;;;;;;;47.72;23.38;;;;;;;1.17;100.00;99257.69;5134929;27;20088;-79
2022/01/17 00:04:15;;;;;;;47.03;23.75;;;;;;;1.25;100.00;99260.16;5134520;27;20043;-83
2022/01/17 00:06:43;;;;;;;54.45;23.88;;;;;;;1.26;100.00;99251.25;5134920;27;20062;-82
2022/01/17 00:09:13;;;;;;;50.42;23.30;;;;;;;1.15;100.00;99236.47;5134507;27;20514;-78
2022/01/17 00:11:44;;;;;;;50.28;23.92;;;;;;;1.16;100.00;99242.63;5134675;27;20113;-83
2022/01/17 00:14:17;;;;;;;52.60;23.67;;;;;;;1.14;100.00;99237.38;5136504;27;20050;-78
2022/01/17 00:16:51;;;;;;;47.85;21.85;;;;;;;1.23;100.00;99238.03;5134664;27;20067;-78
2022/01/17 00:19:35;;;;;;;46.88;21.60;;;;;;;1.24;100.00;99240.66;5134605;27;20039;-83
2022/01/17 00:22:03;;;;;;;51.90;24.08;;;;;;;1.23;100.00;99241.56;5132343;27;20413;-82
2022/01/17 00:24:33;;;;;;;42.78;19.92;;;;;;;1.16;100.00;99250.63;5113827;28;20073;-77
2022/01/17 00:27:00;;;;;;;46.83;20.98;;;;;;;1.29;100.00;99245.84;5113957;28;20067;-78
2022/01/17 00:29:28;;;;;;;41.13;20.48;;;;;;;1.26;100.00;99238.84;5113732;28;20043;-83
2022/01/17 00:31:56;;;;;;;42.92;20.00;;;;;;;1.22;100.00;99230.97;5113925;28;20492;-81
2022/01/17 00:34:24;;;;;;;44.47;19.73;;;;;;;1.26;100.00;99224.63;5113489;28;20466;-77
2022/01/17 00:36:52;;;;;;;43.10;19.88;;;;;;;1.35;100.00;99216.38;5127329;27;20042;-80
2022/01/17 00:39:19;;;;;;;39.55;18.83;;;;;;;1.28;100.00;99209.50;5134034;27;20035;-82
2022/01/17 00:41:48;;;;;;;35.70;17.73;;;;;;;1.40;100.00;99202.97;5134304;27;20405;-82
2022/01/17 00:44:21;;;;;;;37.60;18.13;;;;;;;1.36;100.00;99190.66;5134112;27;20465;-78
2022/01/17 00:46:49;;;;;;;39.70;19.20;;;;;;;1.30;100.00;99181.06;5134154;27;20085;-79
2022/01/17 00:49:19;;;;;;;38.08;18.05;;;;;;;1.28;100.00;99185.56;5133769;27;20574;-80
2022/01/17 00:51:46;;;;;;;34.03;17.40;;;;;;;1.33;100.00;99177.44;5134140;28;20084;-77
2022/01/17 00:54:14;;;;;;;36.65;17.88;;;;;;;1.22;100.00;99159.13;5134225;27;20066;-78
2022/01/17 00:56:42;;;;;;;36.90;18.02;;;;;;;1.30;100.00;99171.31;5133842;27;20047;-77
2022/01/17 00:59:11;;;;;;;36.40;17.25;;;;;;;1.28;100.00;99173.13;5133874;28;20091;-83
2022/01/17 01:01:39;;;;;;;37.78;18.95;;;;;;;1.22;100.00;99154.66;5133703;27;20051;-79
2022/01/17 01:04:06;;;;;;;32.35;16.60;;;;;;;1.27;100.00;99146.56;5138234;27;20047;-79
2022/01/17 01:06:36;;;;;;;32.40;17.20;;;;;;;1.20;100.00;99145.00;5137955;27;20096;-80
2022/01/17 01:09:04;;;;;;;35.75;16.80;;;;;;;1.15;100.00;99140.69;5136663;27;20047;-81
2022/01/17 01:11:32;;;;;;;37.45;17.63;;;;;;;1.30;100.00;99143.81;5126990;27;20044;-78
2022/01/17 01:13:59;;;;;;;34.17;17.70;;;;;;;1.14;100.00;99132.72;5117540;28;20044;-77
2022/01/17 01:16:34;;;;;;;34.20;16.45;;;;;;;1.25;100.00;99141.28;5117271;28;20044;-78
2022/01/17 01:27:39;;;;;;;31.35;16.63;;;;;;;1.21;100.00;99117.47;5126350;27;20127;-77
2022/01/17 01:30:23;;;;;;;30.38;15.63;;;;;;;1.27;100.00;99111.97;5110642;27;20140;-78
2022/01/17 01:32:57;;;;;;;28.55;15.57;;;;;;;1.25;100.00;99103.16;5099587;28;20051;-77
2022/01/17 01:35:27;;;;;;;25.38;13.75;;;;;;;1.24;100.00;99104.97;5120390;27;20043;-78
2022/01/17 01:37:55;;;;;;;27.73;14.10;;;;;;;1.24;100.00;99102.31;5137878;27;20039;-80
2022/01/17 01:40:23;;;;;;;27.45;14.45;;;;;;;1.36;100.00;99087.72;5137727;27;20096;-79
2022/01/17 01:42:52;;;;;;;29.90;15.32;;;;;;;1.30;100.00;99099.47;5137564;27;20043;-81
2022/01/17 01:45:22;;;;;;;26.92;14.15;;;;;;;1.30;100.00;99086.16;5137288;27;20048;-79
2022/01/17 01:47:50;;;;;;;29.40;14.30;;;;;;;1.25;100.00;99081.88;5137486;27;20126;-79
2022/01/17 01:50:20;;;;;;;26.75;13.63;;;;;;;1.26;100.00;99075.63;5137424;27;20039;-78
2022/01/17 01:52:50;;;;;;;24.52;13.50;;;;;;;1.23;100.00;99078.38;5139623;27;20050;-78
2022/01/17 01:55:21;;;;;;;26.77;13.05;;;;;;;1.26;100.00;99063.22;5137336;27;20054;-79
2022/01/17 01:57:49;;;;;;;27.05;14.57;;;;;;;1.39;100.00;99069.00;5137930;27;20077;-78
2022/01/17 02:00:17;;;;;;;24.15;12.57;;;;;;;1.38;100.00;99061.94;5118879;27;20137;-83
2022/01/17 02:02:45;;;;;;;25.45;13.55;;;;;;;1.31;100.00;99055.06;5137376;27;20039;-83
2022/01/17 02:05:13;;;;;;;24.80;13.13;;;;;;;1.37;100.00;99036.25;5137277;27;20039;-83
2022/01/17 02:07:44;;;;;;;28.23;14.43;;;;;;;1.28;100.00;99040.09;5137369;27;20039;-83
2022/01/17 02:10:12;;;;;;;25.33;13.27;;;;;;;1.34;100.00;99039.00;5118596;27;20057;-80
2022/01/17 02:12:40;;;;;;;24.55;13.63;;;;;;;1.29;100.00;99048.94;5137128;27;20045;-83
2022/01/17 02:15:12;;;;;;;26.35;14.07;;;;;;;1.27;100.00;99040.13;5135482;27;20489;-82
2022/01/17 02:17:45;;;;;;;24.55;13.55;;;;;;;1.32;100.00;99035.53;5138222;27;20039;-82
2022/01/17 02:20:19;;;;;;;27.17;13.82;;;;;;;1.43;100.00;99038.75;5138409;27;20039;-84
2022/01/17 02:22:47;;;;;;;26.67;13.02;;;;;;;1.39;100.00;99031.75;5129362;27;20423;-84
2022/01/17 02:25:15;;;;;;;25.50;13.20;;;;;;;1.29;100.00;99020.53;5136887;27;20051;-80
2022/01/17 02:27:42;;;;;;;26.58;13.63;;;;;;;1.37;100.00;99014.09;5136999;27;20054;-83
2022/01/17 02:30:13;;;;;;;24.17;12.52;;;;;;;1.41;100.00;99008.63;5136271;27;20046;-82
2022/01/17 02:32:41;;;;;;;24.23;12.65;;;;;;;1.38;100.00;98989.25;5136636;27;20043;-83
2022/01/17 02:35:13;;;;;;;23.08;13.13;;;;;;;1.36;100.00;98999.91;5136593;27;20046;-78
2022/01/17 02:37:42;;;;;;;23.05;12.65;;;;;;;1.37;100.00;98982.16;5136104;27;20039;-83
2022/01/17 02:40:13;;;;;;;26.20;13.48;;;;;;;1.40;100.00;98985.59;5136510;27;20043;-83
2022/01/17 02:42:41;;;;;;;23.55;12.73;;;;;;;1.44;100.00;98983.72;5136338;27;20035;-82
2022/01/17 02:45:19;;;;;;;23.58;12.20;;;;;;;1.46;100.00;98981.00;5136818;27;20039;-84
2022/01/17 02:47:47;;;;;;;22.35;12.27;;;;;;;1.45;100.00;98972.16;5137329;27;20051;-79
2022/01/17 02:50:14;;;;;;;23.65;12.02;;;;;;;1.37;100.00;98967.06;5136340;27;20043;-84
2022/01/17 02:52:43;;;;;;;24.63;12.95;;;;;;;1.35;100.00;98960.91;5136284;27;20050;-84
2022/01/17 02:55:12;;;;;;;24.40;13.52;;;;;;;1.43;100.00;98955.34;5118003;27;20057;-82
2022/01/17 02:57:40;;;;;;;22.90;12.45;;;;;;;1.41;100.00;98950.06;5135829;27;20047;-77
2022/01/17 03:00:11;;;;;;;23.73;12.93;;;;;;;1.42;100.00;98930.50;5136166;27;20065;-82
2022/01/17 03:02:39;;;;;;;26.15;12.73;;;;;;;1.46;100.00;98935.75;5136685;27;20039;-84
2022/01/17 03:05:09;;;;;;;22.98;12.13;;;;;;;1.44;100.00;98927.81;5136046;27;20126;-84
2022/01/17 03:07:37;;;;;;;23.83;12.82;;;;;;;1.38;100.00;98922.72;5135971;27;20035;-83
2022/01/17 03:10:13;;;;;;;24.50;13.10;;;;;;;1.41;100.00;98914.63;5135909;27;20039;-83
2022/01/17 03:12:40;;;;;;;25.58;13.15;;;;;;;1.37;100.00;98899.69;5135625;27;20047;-78
2022/01/17 03:15:10;;;;;;;24.77;13.23;;;;;;;1.34;100.00;98905.09;5136060;27;20053;-83
2022/01/17 03:17:37;;;;;;;25.13;13.23;;;;;;;1.48;100.00;98896.66;5135754;27;20042;-85
2022/01/17 03:20:06;;;;;;;26.80;13.52;;;;;;;1.43;100.00;98895.03;5135952;27;20050;-84
2022/01/17 03:22:35;;;;;;;26.73;14.40;;;;;;;1.43;100.00;98894.16;5126514;27;20031;-78
2022/01/17 03:25:03;;;;;;;23.23;13.02;;;;;;;1.47;100.00;98889.59;5135387;27;20497;-83
2022/01/17 03:27:32;;;;;;;24.27;12.60;;;;;;;1.51;100.00;98876.13;5135231;27;20039;-86
2022/01/17 03:30:00;;;;;;;24.55;13.20;;;;;;;1.46;100.00;98872.75;5117249;27;20124;-84
2022/01/17 03:32:30;;;;;;;27.38;14.25;;;;;;;1.49;100.00;98869.97;5135545;27;20073;-78
2022/01/17 03:34:57;;;;;;;29.52;13.70;;;;;;;1.44;100.00;98866.59;5135766;27;20065;-79
2022/01/17 03:37:28;;;;;;;29.73;14.70;;;;;;;1.46;100.00;98863.91;5135106;27;20047;-85
2022/01/17 03:39:55;;;;;;;25.90;14.02;;;;;;;1.51;100.00;98849.50;5135313;27;20050;-78
2022/01/17 03:42:24;;;;;;;25.23;13.63;;;;;;;1.49;100.00;98850.50;5134972;27;20054;-79
2022/01/17 03:44:53;;;;;;;27.92;14.32;;;;;;;1.49;100.00;98855.81;5135077;27;20107;-83
2022/01/17 03:47:20;;;;;;;25.63;13.60;;;;;;;1.48;100.00;98852.28;5116777;27;20417;-85
2022/01/17 03:49:48;;;;;;;26.73;13.80;;;;;;;1.44;100.00;98840.88;5135247;27;20046;-85
2022/01/17 03:52:16;;;;;;;28.88;14.88;;;;;;;1.50;100.00;98842.44;5135384;27;20047;-78
2022/01/17 03:54:43;;;;;;;27.38;13.77;;;;;;;1.56;100.00;98844.03;5135087;27;20043;-78
2022/01/17 03:57:11;;;;;;;25.30;13.50;;;;;;;1.54;100.00;98849.38;5134656;27;20066;-84
2022/01/17 03:59:38;;;;;;;31.67;15.85;;;;;;;1.48;100.00;98843.44;5135046;27;20047;-84
2022/01/17 04:02:07;;;;;;;26.83;14.88;;;;;;;1.59;100.00;98834.13;5134995;27;20039;-80
2022/01/17 04:04:35;;;;;;;28.13;13.80;;;;;;;1.46;100.00;98837.28;5134947;27;20039;-78
2022/01/17 04:07:03;;;;;;;27.45;13.73;;;;;;;1.52;100.00;98847.72;5134909;27;20119;-78
2022/01/17 04:09:30;;;;;;;26.20;13.55;;;;;;;1.57;100.00;98838.63;5134806;27;20040;-86
2022/01/17 04:11:58;;;;;;;26.02;13.05;;;;;;;1.50;100.00;98839.78;5134441;27;20043;-85
2022/01/17 04:14:26;;;;;;;23.90;13.80;;;;;;;1.58;100.00;98823.53;5134962;27;20043;-78
2022/01/17 04:16:53;;;;;;;23.67;12.73;;;;;;;1.44;100.00;98822.25;5134783;27;20047;-78
2022/01/17 04:19:22;;;;;;;24.65;13.00;;;;;;;1.36;100.00;98818.13;5135073;27;20043;-78
2022/01/17 04:21:50;;;;;;;29.02;14.20;;;;;;;1.49;100.00;98815.88;5125103;27;20043;-84
2022/01/17 04:24:17;;;;;;;27.77;14.23;;;;;;;1.51;100.00;98812.22;5134851;27;20118;-78
2022/01/17 04:26:45;;;;;;;28.58;15.23;;;;;;;1.53;100.00;98788.25;5134497;27;20071;-79
2022/01/17 04:29:13;;;;;;;29.65;14.23;;;;;;;1.46;100.00;98787.59;5115939;27;20047;-78
2022/01/17 04:31:40;;;;;;;25.10;13.77;;;;;;;1.50;100.00;98772.38;5134341;27;20050;-79
2022/01/17 04:34:08;;;;;;;27.08;14.32;;;;;;;1.46;100.00;98762.78;5134438;27;20050;-85
2022/01/17 04:36:37;;;;;;;27.55;15.18;;;;;;;1.48;100.00;98768.91;5133726;27;20047;-79
2022/01/17 04:39:04;;;;;;;27.52;14.13;;;;;;;1.54;100.00;98755.38;5133698;27;20043;-79
2022/01/17 04:41:38;;;;;;;27.58;13.73;;;;;;;1.44;100.00;98746.84;5134274;27;20039;-78
2022/01/17 04:46:48;;;;;;;26.92;13.60;;;;;;;1.57;100.00;98725.97;5134727;27;20039;-81
2022/01/17 04:49:16;;;;;;;25.85;14.40;;;;;;;1.46;100.00;98718.38;5134132;27;20043;-79
2022/01/17 04:51:45;;;;;;;24.45;13.60;;;;;;;1.63;100.00;98711.56;5125479;27;20039;-86
2022/01/17 04:54:38;;;;;;;24.77;13.70;;;;;;;1.65;100.00;98715.06;5113110;28;20046;-80
2022/01/17 04:57:06;;;;;;;25.33;13.73;;;;;;;1.55;100.00;98706.53;5114385;28;20119;-80
2022/01/17 04:59:36;;;;;;;25.13;13.48;;;;;;;1.68;100.00;98705.13;5113607;28;20114;-85
2022/01/17 05:02:04;;;;;;;28.25;13.85;;;;;;;1.73;100.00;98694.31;5113839;28;20509;-79
2022/01/17 05:04:32;;;;;;;25.05;13.80;;;;;;;1.72;100.00;98679.28;5112807;28;20047;-79
2022/01/17 05:07:01;;;;;;;25.90;13.50;;;;;;;1.73;100.00;98678.34;5113408;28;20047;-78
2022/01/17 05:09:28;;;;;;;27.30;14.32;;;;;;;1.71;100.00;98666.88;5112846;28;20047;-83
2022/01/17 05:11:56;;;;;;;27.45;13.52;;;;;;;1.63;100.00;98660.97;5113234;28;20375;-81
2022/01/17 05:14:25;;;;;;;25.05;13.95;;;;;;;1.65;100.00;98662.66;5113528;28;20043;-79
2022/01/17 05:16:59;;;;;;;28.27;14.13;;;;;;;1.77;100.00;98642.69;5113484;28;20047;-79
2022/01/17 05:22:13;;;;;;;28.20;13.82;;;;;;;1.84;100.00;98622.00;5122074;28;20043;-78
2022/01/17 05:24:41;;;;;;;27.40;14.15;;;;;;;1.82;100.00;98611.41;5113002;28;20047;-81
2022/01/17 05:27:08;;;;;;;26.42;14.27;;;;;;;1.87;100.00;98603.25;5113226;28;20070;-79
2022/01/17 05:29:36;;;;;;;28.20;14.32;;;;;;;1.62;100.00;98595.34;5095203;28;20112;-80
2022/01/17 05:32:05;;;;;;;30.83;15.35;;;;;;;1.68;100.00;98592.47;5113188;28;20047;-80
2022/01/17 05:34:34;;;;;;;26.73;14.18;;;;;;;1.73;100.00;98585.16;5113165;28;20043;-80
2022/01/17 05:37:02;;;;;;;28.02;14.75;;;;;;;1.80;100.00;98583.09;5127618;28;20039;-83
2022/01/17 05:39:31;;;;;;;30.45;15.10;;;;;;;1.77;100.00;98577.91;5133765;27;20405;-85
2022/01/17 05:41:58;;;;;;;27.90;14.18;;;;;;;1.86;100.00;98566.91;5132187;27;20047;-85
2022/01/17 05:44:26;;;;;;;25.33;13.40;;;;;;;1.86;100.00;98565.09;5113011;28;20082;-80
2022/01/17 05:46:54;;;;;;;29.50;14.68;;;;;;;1.84;100.00;98556.28;5121195;28;20158;-81
2022/01/17 05:49:21;;;;;;;24.65;13.73;;;;;;;1.91;100.00;98564.03;5132743;27;20043;-80
2022/01/17 05:51:50;;;;;;;25.35;13.45;;;;;;;1.88;100.00;98559.72;5133662;27;20039;-81
2022/01/17 05:54:18;;;;;;;27.13;14.48;;;;;;;1.91;100.00;98548.03;5133984;27;20096;-81
2022/01/17 05:56:47;;;;;;;27.58;14.55;;;;;;;1.87;100.00;98547.31;5115659;27;20120;-78
2022/01/17 05:59:14;;;;;;;27.02;14.75;;;;;;;1.83;100.00;98538.59;5133499;27;20050;-80
2022/01/17 06:01:44;;;;;;;26.92;14.30;;;;;;;1.91;100.00;98542.72;5133807;27;20035;-81
2022/01/17 06:04:11;;;;;;;24.17;13.18;;;;;;;1.89;100.00;98518.84;5133614;27;20054;-81
2022/01/17 06:06:39;;;;;;;24.65;13.45;;;;;;;1.86;100.00;98503.00;5133518;27;20043;-81
2022/01/17 06:09:09;;;;;;;24.88;13.73;;;;;;;1.90;100.00;98501.94;5133603;27;20072;-81
2022/01/17 06:11:36;;;;;;;28.40;15.25;;;;;;;1.88;100.00;98499.31;5133287;27;20047;-81
2022/01/17 06:14:06;;;;;;;28.25;13.48;;;;;;;1.87;100.00;98494.06;5133638;27;20039;-82
2022/01/17 06:16:35;;;;;;;25.98;13.60;;;;;;;1.90;100.00;98483.28;5138167;27;20055;-79
2022/01/17 06:19:02;;;;;;;33.67;17.52;;;;;;;1.90;100.00;98461.97;5136831;27;20054;-83
2022/01/17 06:21:30;;;;;;;28.27;14.95;;;;;;;1.81;100.00;98451.69;5136319;27;20043;-83
2022/01/17 06:24:00;;;;;;;25.63;13.00;;;;;;;1.91;100.00;98418.44;5118380;27;20134;-83
2022/01/17 06:26:27;;;;;;;30.27;15.77;;;;;;;1.81;100.00;98414.41;5116061;28;20466;-80
2022/01/17 06:28:55;;;;;;;30.02;15.38;;;;;;;1.73;100.00;98410.28;5116285;28;20470;-83
2022/01/17 06:31:24;;;;;;;26.67;14.25;;;;;;;1.74;100.00;98414.69;5116120;28;20047;-84
2022/01/17 06:33:52;;;;;;;27.00;13.95;;;;;;;1.62;100.00;98407.25;5116330;28;20383;-81
2022/01/17 06:36:19;;;;;;;25.42;14.18;;;;;;;1.82;100.00;98418.81;5124760;27;20050;-81
2022/01/17 06:38:47;;;;;;;26.63;14.63;;;;;;;1.89;100.00;98414.97;5136470;27;20625;-84
2022/01/17 06:41:14;;;;;;;25.33;14.13;;;;;;;1.90;100.00;98414.03;5136626;27;20043;-85
2022/01/17 06:43:42;;;;;;;22.75;12.73;;;;;;;1.91;100.00;98415.78;5136366;27;20111;-84
2022/01/17 06:46:10;;;;;;;24.98;13.85;;;;;;;1.92;100.00;98390.00;5136603;27;20054;-80
2022/01/17 06:48:39;;;;;;;24.83;13.65;;;;;;;1.96;100.00;98396.91;5116627;27;20051;-80
2022/01/17 06:51:07;;;;;;;24.55;13.25;;;;;;;1.93;100.00;98376.63;5135406;27;20040;-83
2022/01/17 06:53:34;;;;;;;25.90;13.15;;;;;;;1.93;100.00;98355.31;5136350;27;20046;-83
2022/01/17 06:56:02;;;;;;;21.27;12.77;;;;;;;1.94;100.00;98357.06;5136295;27;20122;-80
2022/01/17 06:58:29;;;;;;;25.05;13.38;;;;;;;2.00;100.00;98359.44;5136203;27;20500;-81
2022/01/17 07:00:57;;;;;;;23.55;13.35;;;;;;;2.00;100.00;98364.75;5135555;27;20050;-83
2022/01/17 07:03:25;;;;;;;25.00;13.40;;;;;;;1.95;100.00;98366.75;5135927;27;20114;-83
2022/01/17 07:05:54;;;;;;;24.08;12.68;;;;;;;1.98;100.00;98369.28;5135713;27;20050;-80
2022/01/17 07:08:21;;;;;;;25.08;13.40;;;;;;;1.90;100.00;98355.47;5135918;27;20040;-81
2022/01/17 07:10:49;;;;;;;27.60;13.25;;;;;;;1.93;100.00;98360.66;5135749;27;20035;-83
2022/01/17 07:13:17;;;;;;;24.52;12.77;;;;;;;1.98;100.00;98385.28;5117705;27;20077;-83
2022/01/17 07:15:44;;;;;;;24.42;13.75;;;;;;;2.01;100.00;98395.78;5135846;27;20088;-80
2022/01/17 07:18:13;;;;;;;25.02;12.98;;;;;;;2.02;100.00;98383.31;5117504;27;20059;-80
2022/01/17 07:20:40;;;;;;;25.65;12.07;;;;;;;1.92;100.00;98350.94;5135432;27;20043;-81
2022/01/17 07:23:10;;;;;;;27.23;13.88;;;;;;;1.96;100.00;98306.34;5124281;27;20047;-83
2022/01/17 07:25:38;;;;;;;23.73;13.05;;;;;;;2.01;100.00;98296.34;5115246;28;20044;-80
2022/01/17 07:28:07;;;;;;;26.20;13.45;;;;;;;1.97;100.00;98290.31;5096835;28;20079;-79
2022/01/17 07:30:35;;;;;;;23.15;12.52;;;;;;;2.02;100.00;98290.97;5114994;28;20104;-83
2022/01/17 07:33:04;;;;;;;21.92;11.55;;;;;;;1.97;100.00;98287.66;5114487;28;20418;-80
2022/01/17 07:35:32;;;;;;;23.10;12.55;;;;;;;2.07;100.00;98311.22;5117070;27;20402;-81
2022/01/17 07:38:00;;;;;;;24.25;13.02;;;;;;;2.08;100.00;98270.31;5135271;27;20382;-80
2022/01/17 07:40:30;;;;;;;30.17;15.45;;;;;;;2.10;100.00;98261.31;5117136;27;20055;-81
2022/01/17 07:42:58;;;;;;;26.90;14.85;;;;;;;2.14;100.00;98230.06;5135140;27;21304;-83
2022/01/17 07:45:27;;;;;;;23.92;12.23;;;;;;;2.11;100.00;98215.09;5137354;27;20047;-80
2022/01/17 07:48:33;;;;;;;26.73;14.50;;;;;;;2.09;100.00;98190.34;5134805;27;20482;-80
2022/01/17 07:51:00;;;;;;;24.13;13.77;;;;;;;2.03;100.00;98169.31;5134977;27;20063;-80
2022/01/17 07:53:28;;;;;;;32.58;16.33;;;;;;;1.96;100.00;98151.91;5135263;27;20047;-81
2022/01/17 07:55:57;;;;;;;28.45;17.25;;;;;;;2.07;100.00;98138.06;5135191;27;20043;-79
2022/01/17 07:58:24;;;;;;;23.88;13.02;;;;;;;2.14;100.00;98137.72;5135097;27;20447;-80
2022/01/17 08:00:52;;;;;;;24.35;13.05;;;;;;;2.14;100.00;98137.72;5135203;27;20047;-78
2022/01/17 08:03:19;;;;;;;28.75;13.13;;;;;;;2.19;100.00;98134.78;5134946;27;20047;-86
2022/01/17 08:05:47;;;;;;;26.55;12.75;;;;;;;2.21;100.00;98140.91;5135236;27;20509;-87
2022/01/17 08:08:14;;;;;;;22.15;10.50;;;;;;;2.23;100.00;98165.69;5135198;27;20110;-81
2022/01/17 08:10:44;;;;;;;22.40;11.15;;;;;;;2.11;100.00;98150.31;5116998;27;20142;-79
2022/01/17 08:13:14;;;;;;;26.40;13.52;;;;;;;2.21;100.00;98169.38;5134093;27;20481;-80
2022/01/17 08:15:42;;;;;;;22.70;11.60;;;;;;;2.24;100.00;98164.72;5134822;27;20549;-78
2022/01/17 08:18:11;;;;;;;24.17;10.75;;;;;;;2.13;100.00;98159.06;5134350;27;20043;-78
2022/01/17 08:20:39;;;;;;;20.33;10.73;;;;;;;2.16;100.00;98118.97;5134571;27;20057;-77
2022/01/17 08:23:06;;;;;;;26.38;11.85;;;;;;;2.26;100.00;98128.25;5134337;27;20042;-79
2022/01/17 08:25:34;;;;;;;20.55;10.82;;;;;;;2.18;100.00;98114.44;5131041;27;20382;-77
2022/01/17 08:28:02;;;;;;;22.52;11.82;;;;;;;2.21;100.00;98100.94;5131036;27;20046;-76
2022/01/17 08:30:31;;;;;;;24.23;13.35;;;;;;;2.26;100.00;98111.38;5130492;27;20051;-78
2022/01/17 08:32:59;;;;;;;19.55;10.35;;;;;;;2.11;100.00;98102.34;5130553;27;20092;-79
2022/01/17 08:35:27;;;;;;;21.75;11.85;;;;;;;2.09;100.00;98093.56;5130870;27;20043;-76
2022/01/17 08:37:55;;;;;;;20.55;11.40;;;;;;;2.09;100.00;98086.47;5130240;27;20043;-77
2022/01/17 08:40:23;;;;;;;20.25;10.52;;;;;;;2.13;100.00;98085.38;5131121;27;20073;-77
2022/01/17 08:42:51;;;;;;;22.08;11.60;;;;;;;2.04;100.00;98080.50;5130271;27;20096;-77
2022/01/17 08:45:21;;;;;;;20.33;11.40;;;;;;;2.17;100.00;98091.38;5131731;27;20063;-76
2022/01/17 08:47:52;;;;;;;28.98;14.32;;;;;;;2.16;100.00;98068.34;5130978;27;20046;-76
2022/01/17 08:50:22;;;;;;;20.13;10.70;;;;;;;2.05;100.00;98034.28;5132297;27;20051;-77
2022/01/17 08:52:50;;;;;;;22.52;11.30;;;;;;;2.14;100.00;98046.25;5120579;27;20048;-77
2022/01/17 08:55:19;;;;;;;20.85;11.30;;;;;;;2.24;100.00;98042.19;5110403;28;20078;-77
2022/01/17 08:57:46;;;;;;;29.42;13.25;;;;;;;2.10;100.00;98039.38;5110517;28;20459;-76
2022/01/17 09:00:16;;;;;;;20.65;10.73;;;;;;;2.22;100.00;98032.56;5109680;28;20036;-78
2022/01/17 09:02:44;;;;;;;19.40;9.95;;;;;;;2.14;100.00;98014.28;5109914;28;20054;-78
2022/01/17 09:05:13;;;;;;;16.50;9.18;;;;;;;2.17;100.00;98025.66;5116163;28;20043;-76
2022/01/17 09:07:41;;;;;;;22.38;10.88;;;;;;;2.22;100.00;98009.44;5130579;27;20075;-76
2022/01/17 09:10:09;;;;;;;24.60;12.82;;;;;;;2.23;100.00;98011.16;5130561;27;20125;-77
2022/01/17 09:12:37;;;;;;;44.10;19.08;;;;;;;2.11;100.00;98018.00;5130218;27;20043;-77
2022/01/17 09:15:05;;;;;;;26.45;12.15;;;;;;;2.20;100.00;98027.28;5130132;27;20050;-77
2022/01/17 09:17:32;;;;;;;42.30;17.80;;;;;;;2.20;100.00;98016.63;5129631;27;20100;-77
2022/01/17 09:20:00;;;;;;;30.15;12.65;;;;;;;2.11;100.00;98041.09;5130255;27;20050;-78
2022/01/17 09:22:30;;;;;;;27.33;11.38;;;;;;;2.14;100.00;98012.50;5124589;27;20043;-77
2022/01/17 09:24:57;;;;;;;27.67;11.95;;;;;;;2.11;100.00;98019.78;5113630;28;20566;-77
2022/01/17 09:27:25;;;;;;;25.55;12.13;;;;;;;2.12;100.00;98002.84;5113872;28;20048;-77
2022/01/17 09:29:53;;;;;;;26.75;11.02;;;;;;;2.15;100.00;98024.88;5113141;28;20051;-77
2022/01/17 09:32:21;;;;;;;24.98;9.77;;;;;;;2.14;100.00;98024.94;5113835;28;20052;-78
2022/01/17 09:34:48;;;;;;;20.23;9.98;;;;;;;2.05;100.00;97998.78;5113693;28;20043;-77
2022/01/17 09:37:16;;;;;;;20.40;9.68;;;;;;;1.91;100.00;98016.34;5130388;27;20096;-77
2022/01/17 09:39:45;;;;;;;25.52;10.48;;;;;;;2.03;100.00;97997.06;5133986;27;20413;-75
2022/01/17 09:42:13;;;;;;;19.13;9.75;;;;;;;2.06;100.00;97995.19;5133809;27;20043;-78
2022/01/17 09:44:44;;;;;;;19.17;9.35;;;;;;;1.94;100.00;97978.91;5123174;27;20150;-74
2022/01/17 09:47:13;;;;;;;19.15;10.00;;;;;;;1.92;100.00;97978.13;5124737;27;20043;-76
2022/01/17 09:49:48;;;;;;;22.27;10.45;;;;;;;1.92;100.00;97974.56;5115208;27;20129;-77
2022/01/17 09:52:34;;;;;;;21.35;11.38;;;;;;;2.00;100.00;97967.06;5122664;27;20093;-77
2022/01/17 09:55:08;;;;;;;25.08;12.73;;;;;;;1.94;100.00;97965.59;5116856;27;20086;-77
2022/01/17 09:57:42;;;;;;;20.95;10.60;;;;;;;1.96;100.00;97954.84;5131437;27;20059;-77
2022/01/17 10:00:12;;;;;;;18.63;10.23;;;;;;;1.97;100.00;97952.09;5114673;28;20405;-78
2022/01/17 10:02:40;;;;;;;19.52;9.38;;;;;;;1.96;100.00;97966.38;5113664;28;20044;-77
2022/01/17 10:05:09;;;;;;;19.08;10.32;;;;;;;1.99;100.00;97958.22;5113354;28;20860;-77
2022/01/17 10:07:58;;;;;;;22.75;11.48;;;;;;;1.96;100.00;97971.69;5116293;27;20472;-76
2022/01/17 10:17:50;;;;;;;14.05;4.40;;;;;;;1.40;100.00;98128.75;5121224;27;20049;-76
2022/01/17 10:20:19;;;;;;;5.25;2.28;;;;;;;1.27;100.00;98120.50;5135488;27;20071;-77
2022/01/17 10:22:53;;;;;;;8.60;3.17;;;;;;;1.11;100.00;98112.34;5124540;27;20045;-76
2022/01/17 10:25:37;;;;;;;9.25;3.15;;;;;;;1.23;100.00;98094.09;5133826;27;20043;-76
2022/01/17 10:28:32;;;;;;;7.97;3.20;;;;;;;1.19;100.00;98100.50;5134230;27;20043;-76
2022/01/17 10:31:32;;;;;;;6.40;2.30;;;;;;;1.24;100.00;98090.50;5134207;27;20416;-77
2022/01/17 10:36:44;;;;;;;12.88;5.53;;;;;;;1.15;100.00;98099.75;5133076;27;20043;-76
2022/01/17 10:39:12;;;;;;;30.35;10.35;;;;;;;1.22;100.00;98116.31;5133341;27;20055;-77
2022/01/17 10:41:39;;;;;;;13.63;4.07;;;;;;;1.24;100.00;98115.31;5133135;27;20054;-76
2022/01/17 10:44:07;;;;;;;11.77;3.15;;;;;;;1.18;100.00;98123.53;5133299;27;20057;-76
2022/01/17 10:46:35;;;;;;;9.25;3.67;;;;;;;1.19;100.00;98127.09;5133073;27;20050;-77
2022/01/17 10:49:04;;;;;;;5.10;2.10;;;;;;;1.11;100.00;98117.66;5133168;27;20058;-76
2022/01/17 10:51:34;;;;;;;7.00;2.40;;;;;;;1.16;100.00;98117.44;5133155;27;20126;-78
2022/01/17 10:54:12;;;;;;;14.07;5.03;;;;;;;1.11;100.00;98120.31;5126407;27;20516;-78
2022/01/17 10:56:51;;;;;;;17.98;6.85;;;;;;;1.13;100.00;98130.88;5107197;27;20050;-77
2022/01/17 10:59:27;;;;;;;27.35;8.82;;;;;;;1.08;100.00;98130.22;5125478;27;20458;-77
2022/01/17 11:01:56;;;;;;;29.60;9.90;;;;;;;1.09;100.00;98135.50;5124934;27;20470;-78
2022/01/17 11:04:36;;;;;;;26.27;8.68;;;;;;;1.19;100.00;98140.38;5127099;27;20039;-77
2022/01/17 11:07:06;;;;;;;20.70;7.18;;;;;;;1.08;100.00;98139.09;5126795;27;20108;-77
2022/01/17 11:09:39;;;;;;;18.63;6.88;;;;;;;0.99;100.00;98145.66;5124703;27;20040;-77
2022/01/17 11:12:11;;;;;;;30.60;10.38;;;;;;;1.05;100.00;98147.19;5126988;27;20046;-76
2022/01/17 11:14:39;;;;;;;35.33;11.18;;;;;;;0.98;100.00;98156.34;5126960;27;20543;-77
2022/01/17 11:17:25;;;;;;;62.58;22.60;;;;;;;1.03;100.00;98165.00;5125200;27;20039;-77
2022/01/17 11:20:06;;;;;;;57.38;20.83;;;;;;;1.05;100.00;98165.81;5127326;27;20050;-77
2022/01/17 11:22:36;;;;;;;51.03;20.90;;;;;;;1.02;100.00;98165.94;5108635;27;20494;-78
2022/01/17 11:25:06;;;;;;;47.70;20.67;;;;;;;0.89;100.00;98162.97;5127283;27;20042;-78
2022/01/17 11:27:35;;;;;;;36.35;14.93;;;;;;;1.00;100.00;98163.34;5108755;27;20102;-78
2022/01/17 11:30:26;;;;;;;77.03;33.05;;;;;;;1.07;100.00;98163.94;5124705;27;20043;-79
2022/01/17 11:32:56;;;;;;;61.67;22.83;;;;;;;0.90;100.00;98158.50;5119869;27;20059;-78
2022/01/17 11:35:26;;;;;;;64.40;26.67;;;;;;;0.99;100.00;98171.38;5125122;27;20036;-79
2022/01/17 11:37:59;;;;;;;37.17;21.67;;;;;;;1.00;100.00;98189.06;5130262;27;20043;-79
2022/01/17 11:40:30;;;;;;;32.33;16.05;;;;;;;0.96;100.00;98185.69;5107430;27;20550;-79
2022/01/17 11:42:59;;;;;;;38.90;12.05;;;;;;;0.90;100.00;98195.72;5108859;27;20047;-78
2022/01/17 11:45:36;;;;;;;22.08;7.85;;;;;;;0.84;100.00;98224.28;5129006;27;20049;-79
2022/01/17 11:48:19;;;;;;;28.77;9.35;;;;;;;0.99;99.64;98238.72;5125342;27;20039;-79
2022/01/17 11:50:51;;;;;;;23.30;8.98;;;;;;;0.95;99.68;98257.53;5125263;27;20512;-79
2022/01/17 11:53:39;;;;;;;18.83;6.03;;;;;;;0.95;99.66;98260.19;5124271;27;20498;-78
2022/01/17 11:56:07;;;;;;;37.53;11.43;;;;;;;0.94;99.14;98253.13;5116647;27;20056;-79